[vc_row][vc_column width=”2/3″]

Nesenie raksti

Ziņas

[/vc_column][vc_column width=”1/3″ el_class=”sticky-column”]

Par Gliding.lv

[vc_column_text]Gliding.lv ir interneta vietne par planieriem un planierismu. Šeit būs atrodama informācija par iespējām pamēģināt, iesaistīties un organizēt planierisma aktivitātes. Izmanto Gliding.lv forumu, ja Tev ir kāda tēma diskusijai vai jautājums. Gliding.lv merķis ir informēt un apvienot planierisma interesentus, nodrošinot un apmainoties ar aktuālāko un arī bijušo. Lidojam![/vc_column_text][vc_column_text]
[/vc_column_text]

METAR

EVRA 031820Z 27006KT 220V310 9999 FEW014CB SCT047 M04/M05 Q0999 NOSIG

EVLA 031820Z AUTO VRB02KT 9999 FEW009/// BKN033/// BKN098/// M03/M03 Q1001

EVVA 031820Z AUTO VRB01KT 0400 FG NSC M07/M08 Q1000

Nesenie raksti

[/vc_column][/vc_row]

Pāriet uz rīkjoslu